createdAt,value
2022-09-28T00:01:21.710Z,1.25
2022-09-28T00:03:52.305Z,1.42
2022-09-28T00:06:24.481Z,1.10
2022-09-28T00:08:52.566Z,1.30
2022-09-28T00:11:21.558Z,1.20
2022-09-28T00:13:56.524Z,1.23
2022-09-28T00:16:27.114Z,1.13
2022-09-28T00:18:55.129Z,1.17
2022-09-28T00:21:27.230Z,1.20
2022-09-28T00:24:15.848Z,1.10
2022-09-28T00:26:52.837Z,1.30
2022-09-28T00:32:02.645Z,1.02
2022-09-28T00:34:33.005Z,1.25
2022-09-28T00:37:02.216Z,0.95
2022-09-28T00:39:31.905Z,1.23
2022-09-28T00:41:59.924Z,1.23
2022-09-28T00:44:36.176Z,1.10
2022-09-28T00:47:15.217Z,0.85
2022-09-28T00:50:01.273Z,0.98
2022-09-28T00:53:01.405Z,0.90
2022-09-28T00:55:46.537Z,1.35
2022-09-28T00:58:20.176Z,1.30
2022-09-28T01:00:49.162Z,1.40
2022-09-28T01:03:17.499Z,1.23
2022-09-28T01:05:47.227Z,1.20
2022-09-28T01:08:17.683Z,1.15
2022-09-28T01:10:45.443Z,1.23
2022-09-28T01:13:16.278Z,1.00
2022-09-28T01:15:54.901Z,1.20
2022-09-28T01:18:41.252Z,1.15
2022-09-28T01:21:25.737Z,0.98
2022-09-28T01:24:16.673Z,1.13
2022-09-28T01:26:55.225Z,0.88
2022-09-28T01:29:35.930Z,1.33
2022-09-28T01:32:31.665Z,1.10
2022-09-28T01:35:05.412Z,1.25
2022-09-28T01:37:45.470Z,1.33
2022-09-28T01:40:15.774Z,0.95
2022-09-28T01:42:47.162Z,1.10
2022-09-28T01:45:20.882Z,1.00
2022-09-28T01:47:50.861Z,0.98
2022-09-28T01:50:22.913Z,1.10
2022-09-28T01:52:57.278Z,0.80
2022-09-28T01:55:38.878Z,1.20
2022-09-28T01:58:22.466Z,1.10
2022-09-28T02:00:57.704Z,1.10
2022-09-28T02:03:33.174Z,0.90
2022-09-28T02:06:11.729Z,1.20
2022-09-28T02:08:59.751Z,1.50
2022-09-28T02:11:41.611Z,1.20
2022-09-28T02:14:12.529Z,1.10
2022-09-28T02:17:20.154Z,1.02
2022-09-28T02:19:48.414Z,0.80
2022-09-28T02:22:34.223Z,1.40
2022-09-28T02:25:18.120Z,1.13
2022-09-28T02:28:00.543Z,1.00
2022-09-28T02:30:35.754Z,1.00
2022-09-28T02:33:20.075Z,0.95
2022-09-28T02:35:48.114Z,0.80
2022-09-28T02:38:16.890Z,1.13
2022-09-28T02:40:53.397Z,1.02
2022-09-28T02:43:33.366Z,1.13
2022-09-28T02:46:10.213Z,1.15
2022-09-28T02:48:52.219Z,1.23
2022-09-28T02:51:45.369Z,0.80
2022-09-28T02:54:26.319Z,1.00
2022-09-28T02:57:32.872Z,0.80
2022-09-28T03:00:14.454Z,0.88
2022-09-28T03:03:25.803Z,1.20
2022-09-28T03:06:02.622Z,0.70
2022-09-28T03:09:23.037Z,0.73
2022-09-28T03:12:05.221Z,1.17
2022-09-28T03:14:32.918Z,2.92
2022-09-28T03:17:00.899Z,3.05
2022-09-28T03:19:32.419Z,2.60
2022-09-28T03:22:01.978Z,2.30
2022-09-28T03:24:29.713Z,2.00
2022-09-28T03:26:57.362Z,1.42
2022-09-28T03:29:24.994Z,1.30
2022-09-28T03:31:58.846Z,0.93
2022-09-28T03:34:26.642Z,0.68
2022-09-28T03:36:54.507Z,1.05
2022-09-28T03:39:22.282Z,0.98
2022-09-28T03:41:49.885Z,0.93
2022-09-28T03:44:19.316Z,0.90
2022-09-28T03:46:49.132Z,0.70
2022-09-28T03:49:16.930Z,0.70
2022-09-28T03:51:44.682Z,0.63
2022-09-28T03:54:13.082Z,0.70
2022-09-28T03:56:41.381Z,0.70
2022-09-28T03:59:08.987Z,1.10
2022-09-28T04:01:37.525Z,1.40
2022-09-28T04:04:05.740Z,1.30
2022-09-28T04:06:33.468Z,1.35
2022-09-28T04:09:01.196Z,1.58
2022-09-28T04:11:38.515Z,2.53
2022-09-28T04:14:17.780Z,2.45
2022-09-28T04:16:45.718Z,2.08
2022-09-28T04:19:15.973Z,2.50
2022-09-28T04:22:06.615Z,2.13
2022-09-28T04:24:34.394Z,4.10
2022-09-28T04:27:20.857Z,3.92
2022-09-28T04:32:18.697Z,3.08
2022-09-28T04:34:46.254Z,2.70
2022-09-28T04:37:15.136Z,2.78
2022-09-28T04:39:46.287Z,2.83
2022-09-28T04:42:18.530Z,3.38
2022-09-28T04:44:46.636Z,3.28
2022-09-28T04:47:14.765Z,3.17
2022-09-28T04:49:57.599Z,2.90
2022-09-28T04:52:37.128Z,2.95
2022-09-28T04:55:06.346Z,2.70
2022-09-28T04:57:35.820Z,2.92
2022-09-28T05:00:04.807Z,3.88
2022-09-28T05:02:35.341Z,4.35
2022-09-28T05:05:22.069Z,4.07
2022-09-28T05:08:09.735Z,4.30
2022-09-28T05:10:40.753Z,3.78
2022-09-28T05:13:09.693Z,3.33
2022-09-28T05:15:38.762Z,2.58
2022-09-28T05:18:07.210Z,2.20
2022-09-28T05:20:46.433Z,3.33
2022-09-28T05:23:15.717Z,3.08
2022-09-28T05:25:46.001Z,3.88
2022-09-28T05:28:28.955Z,3.78
2022-09-28T05:31:15.163Z,3.42
2022-09-28T05:34:18.158Z,3.47
2022-09-28T05:36:46.831Z,7.60
2022-09-28T05:39:14.735Z,11.63
2022-09-28T05:41:42.553Z,9.73
2022-09-28T05:44:12.267Z,6.95
2022-09-28T05:46:40.211Z,5.57
2022-09-28T05:49:10.080Z,4.85
2022-09-28T05:51:39.546Z,4.72
2022-09-28T05:54:09.025Z,2.80
2022-09-28T05:56:40.896Z,2.13
2022-09-28T05:59:09.514Z,1.52
2022-09-28T06:01:37.919Z,1.55
2022-09-28T06:04:09.407Z,1.45
2022-09-28T06:06:43.608Z,1.45
2022-09-28T06:09:11.360Z,1.20
2022-09-28T06:11:48.486Z,1.30
2022-09-28T06:16:52.321Z,0.90
2022-09-28T06:19:20.119Z,1.35
2022-09-28T06:22:09.119Z,0.80
2022-09-28T06:24:47.585Z,0.95
2022-09-28T06:27:15.358Z,0.88
2022-09-28T06:29:43.313Z,1.10
2022-09-28T06:32:12.590Z,1.35
2022-09-28T06:34:42.153Z,1.40
2022-09-28T06:37:10.051Z,1.27
2022-09-28T06:39:38.219Z,1.88
2022-09-28T06:42:06.549Z,2.65
2022-09-28T06:44:52.731Z,2.38
2022-09-28T06:47:39.288Z,2.22
2022-09-28T06:50:17.704Z,2.10
2022-09-28T06:53:13.789Z,1.35
2022-09-28T06:55:54.989Z,2.05
2022-09-28T06:58:23.826Z,1.30
2022-09-28T07:00:52.503Z,1.60
2022-09-28T07:03:22.544Z,1.10
2022-09-28T07:06:12.093Z,1.10
2022-09-28T07:09:02.942Z,1.90
2022-09-28T07:12:16.171Z,1.13
2022-09-28T07:14:57.840Z,0.95
2022-09-28T07:17:28.511Z,1.20
2022-09-28T07:20:05.459Z,1.50
2022-09-28T07:22:43.510Z,4.43
2022-09-28T07:25:17.150Z,2.63
2022-09-28T07:28:09.559Z,2.47
2022-09-28T07:31:03.756Z,1.50
2022-09-28T07:34:06.910Z,1.70
2022-09-28T07:36:58.960Z,1.98
2022-09-28T07:39:27.028Z,2.10
2022-09-28T07:41:59.643Z,1.83
2022-09-28T07:44:30.196Z,1.73
2022-09-28T07:47:02.278Z,2.28
2022-09-28T07:49:57.213Z,1.23
2022-09-28T07:52:47.465Z,1.83
2022-09-28T07:55:23.901Z,2.30
2022-09-28T07:58:14.769Z,1.70
2022-09-28T08:00:54.821Z,1.70
2022-09-28T08:03:22.662Z,2.40
2022-09-28T08:05:50.375Z,2.22
2022-09-28T08:08:20.306Z,3.03
2022-09-28T08:10:48.735Z,2.50
2022-09-28T08:13:44.171Z,2.30
2022-09-28T08:16:35.164Z,1.85
2022-09-28T08:19:13.497Z,2.15
2022-09-28T08:21:47.323Z,1.88
2022-09-28T08:24:17.778Z,1.83
2022-09-28T08:26:46.987Z,1.40
2022-09-28T08:29:17.288Z,1.83
2022-09-28T08:32:02.012Z,2.22
2022-09-28T08:34:29.726Z,2.47
2022-09-28T08:37:16.223Z,3.20
2022-09-28T08:40:04.459Z,3.42
2022-09-28T08:42:54.966Z,3.28
2022-09-28T08:45:41.137Z,3.63
2022-09-28T08:48:56.284Z,3.40
2022-09-28T08:51:55.029Z,3.03
2022-09-28T08:54:56.348Z,2.38
2022-09-28T09:00:48.878Z,1.80
2022-09-28T09:03:41.866Z,2.38
2022-09-28T09:06:54.075Z,1.90
2022-09-28T09:09:40.136Z,1.83
2022-09-28T09:12:38.846Z,2.20
2022-09-28T09:15:38.867Z,1.98
2022-09-28T09:18:33.453Z,2.83
2022-09-28T09:21:49.067Z,2.47
2022-09-28T09:24:25.125Z,2.42
2022-09-28T09:27:16.053Z,2.17
2022-09-28T09:30:06.471Z,2.30
2022-09-28T09:33:05.325Z,2.15
2022-09-28T09:36:32.828Z,2.50
2022-09-28T09:39:44.024Z,2.58
2022-09-28T09:42:44.748Z,2.60
2022-09-28T09:45:53.318Z,2.88
2022-09-28T09:48:59.396Z,2.15
2022-09-28T09:51:27.132Z,2.25
2022-09-28T09:54:03.664Z,2.25
2022-09-28T09:56:40.568Z,2.70
2022-09-28T09:59:20.378Z,3.08
2022-09-28T10:02:26.284Z,2.45
2022-09-28T10:05:12.356Z,2.45
2022-09-28T10:08:06.324Z,2.75
2022-09-28T10:10:42.863Z,2.17
2022-09-28T10:13:14.906Z,2.60
2022-09-28T10:15:47.718Z,2.70
2022-09-28T10:18:21.680Z,2.53
2022-09-28T10:21:13.317Z,1.90
2022-09-28T10:24:22.913Z,2.40
2022-09-28T10:26:55.153Z,2.30
2022-09-28T10:29:27.197Z,2.60
2022-09-28T10:31:55.730Z,3.30
2022-09-28T10:34:31.141Z,3.80
2022-09-28T10:37:11.168Z,4.03
2022-09-28T10:39:57.607Z,3.80
2022-09-28T10:42:34.120Z,3.72
2022-09-28T10:45:24.058Z,4.47
2022-09-28T10:47:52.032Z,5.32
2022-09-28T10:50:23.772Z,4.90
2022-09-28T10:53:17.946Z,4.03
2022-09-28T10:56:19.248Z,4.32
2022-09-28T10:58:48.780Z,5.30
2022-09-28T11:01:38.115Z,5.25
2022-09-28T11:04:10.604Z,4.68
2022-09-28T11:06:40.499Z,5.05
2022-09-28T11:09:43.035Z,4.53
2022-09-28T11:12:17.472Z,5.03
2022-09-28T11:14:46.803Z,4.72
2022-09-28T11:17:32.706Z,4.10
2022-09-28T11:20:26.104Z,3.60
2022-09-28T11:22:57.622Z,3.55
2022-09-28T11:25:31.414Z,3.47
2022-09-28T11:28:04.521Z,3.40
2022-09-28T11:30:33.861Z,16.05
2022-09-28T11:33:35.214Z,16.17
2022-09-28T11:37:01.563Z,15.60
2022-09-28T11:40:03.637Z,11.40
2022-09-28T11:42:49.867Z,9.75
2022-09-28T11:45:32.623Z,8.35
2022-09-28T11:48:07.714Z,5.60
2022-09-28T11:51:00.215Z,5.40
2022-09-28T11:53:35.016Z,8.20
2022-09-28T11:56:17.313Z,6.97
2022-09-28T11:58:49.350Z,8.75
2022-09-28T12:01:37.019Z,8.63
2022-09-28T12:04:21.968Z,8.73
2022-09-28T12:07:06.979Z,7.65
2022-09-28T12:10:00.599Z,7.30
2022-09-28T12:12:36.274Z,6.25
2022-09-28T12:17:19.864Z,6.45
2022-09-28T12:20:04.507Z,5.72
2022-09-28T12:22:41.224Z,5.55
2022-09-28T12:25:16.260Z,4.45
2022-09-28T12:27:51.138Z,3.78
2022-09-28T12:30:21.042Z,4.15
2022-09-28T12:32:57.375Z,4.85
2022-09-28T12:35:52.672Z,4.70
2022-09-28T12:38:33.868Z,4.55
2022-09-28T12:41:05.599Z,4.68
2022-09-28T12:43:33.635Z,4.40
2022-09-28T12:46:17.673Z,3.72
2022-09-28T12:50:01.915Z,3.47
2022-09-28T12:52:33.621Z,3.70
2022-09-28T12:55:32.413Z,3.28
2022-09-28T12:58:31.114Z,3.30
2022-09-28T13:01:01.735Z,3.13
2022-09-28T13:03:59.938Z,4.00
2022-09-28T13:06:42.314Z,4.50
2022-09-28T13:09:16.136Z,4.07
2022-09-28T13:12:14.098Z,4.20
2022-09-28T13:17:38.881Z,3.08
2022-09-28T13:20:31.327Z,2.75
2022-09-28T13:23:15.809Z,3.10
2022-09-28T13:25:52.875Z,1.98
2022-09-28T13:28:27.045Z,2.22
2022-09-28T13:30:59.924Z,2.40
2022-09-28T13:33:37.712Z,1.60
2022-09-28T13:36:26.201Z,1.48
2022-09-28T13:38:56.289Z,1.50
2022-09-28T13:41:40.576Z,1.80
2022-09-28T13:44:11.511Z,1.52
2022-09-28T13:46:55.176Z,1.27
2022-09-28T13:49:56.889Z,1.08
2022-09-28T13:52:40.680Z,0.80
2022-09-28T13:55:14.308Z,0.70
2022-09-28T13:57:49.935Z,1.25
2022-09-28T14:00:29.329Z,1.65
2022-09-28T14:03:06.338Z,1.50
2022-09-28T14:05:45.960Z,1.33
2022-09-28T14:08:28.546Z,1.23
2022-09-28T14:10:57.927Z,1.45
2022-09-28T14:13:40.753Z,1.40
2022-09-28T14:16:23.083Z,1.30
2022-09-28T14:19:02.359Z,1.02
2022-09-28T14:21:54.691Z,1.17
2022-09-28T14:24:50.179Z,1.63
2022-09-28T14:27:36.113Z,1.33
2022-09-28T14:30:18.901Z,1.45
2022-09-28T14:32:58.555Z,0.73
2022-09-28T14:35:31.988Z,0.90
2022-09-28T14:38:30.460Z,0.70
2022-09-28T14:41:15.498Z,0.80
2022-09-28T14:43:46.367Z,0.77
2022-09-28T14:46:20.346Z,0.80
2022-09-28T14:48:56.121Z,0.63
2022-09-28T14:51:27.076Z,0.80
2022-09-28T14:54:05.889Z,1.00
2022-09-28T14:56:59.053Z,0.70
2022-09-28T14:59:36.106Z,0.65
2022-09-28T15:02:22.329Z,1.15
2022-09-28T15:05:01.914Z,0.90
2022-09-28T15:07:43.513Z,0.75
2022-09-28T15:10:31.599Z,0.80
2022-09-28T15:13:05.707Z,0.68
2022-09-28T15:15:37.316Z,0.73
2022-09-28T15:18:27.698Z,0.80
2022-09-28T15:20:56.416Z,0.70
2022-09-28T15:23:35.980Z,0.90
2022-09-28T15:26:08.612Z,1.30
2022-09-28T15:28:39.520Z,1.90
2022-09-28T15:31:07.269Z,1.60
2022-09-28T15:33:54.086Z,1.70
2022-09-28T15:36:27.963Z,1.50
2022-09-28T15:39:00.150Z,0.90
2022-09-28T15:41:29.001Z,0.75
2022-09-28T15:44:33.183Z,0.70
2022-09-28T15:47:25.347Z,2.00
2022-09-28T15:50:02.722Z,2.50
2022-09-28T15:52:38.906Z,2.22
2022-09-28T15:55:20.694Z,2.10
2022-09-28T15:57:49.121Z,1.30
2022-09-28T16:00:27.173Z,0.70
2022-09-28T16:03:19.303Z,0.90
2022-09-28T16:05:59.102Z,1.40
2022-09-28T16:08:36.303Z,2.13
2022-09-28T16:11:17.132Z,1.70
2022-09-28T16:14:17.679Z,1.98
2022-09-28T16:16:49.808Z,1.00
2022-09-28T16:19:30.253Z,1.00
2022-09-28T16:22:00.254Z,0.70
2022-09-28T16:24:38.898Z,0.82
2022-09-28T16:27:08.670Z,0.80
2022-09-28T16:29:42.328Z,0.90
2022-09-28T16:32:25.490Z,0.85
2022-09-28T16:35:11.473Z,1.00
2022-09-28T16:37:44.108Z,1.00
2022-09-28T16:40:12.863Z,0.60
2022-09-28T16:42:48.701Z,0.60
2022-09-28T16:45:22.536Z,0.38
2022-09-28T16:47:53.709Z,0.40
2022-09-28T16:50:22.337Z,0.90
2022-09-28T16:53:15.086Z,1.10
2022-09-28T16:55:43.155Z,1.10
2022-09-28T16:58:10.830Z,1.13
2022-09-28T17:00:38.851Z,0.75
2022-09-28T17:03:18.412Z,0.70
2022-09-28T17:05:48.092Z,0.60
2022-09-28T17:08:18.576Z,0.50
2022-09-28T17:13:42.323Z,1.00
2022-09-28T17:16:14.863Z,0.85
2022-09-28T17:18:42.691Z,1.35
2022-09-28T17:21:15.984Z,1.30
2022-09-28T17:23:44.715Z,1.60
2022-09-28T17:26:34.612Z,1.60
2022-09-28T17:29:02.397Z,2.00
2022-09-28T17:31:30.539Z,3.20
2022-09-28T17:33:58.480Z,3.60
2022-09-28T17:36:27.170Z,2.83
2022-09-28T17:38:54.933Z,2.30
2022-09-28T17:41:22.723Z,2.40
2022-09-28T17:43:50.333Z,2.15
2022-09-28T17:46:31.269Z,2.88
2022-09-28T17:49:00.786Z,3.75
2022-09-28T17:51:31.303Z,3.85
2022-09-28T17:54:01.179Z,4.15
2022-09-28T17:56:32.093Z,4.20
2022-09-28T17:59:10.211Z,3.50
2022-09-28T18:01:40.211Z,4.30
2022-09-28T18:04:13.138Z,3.75
2022-09-28T18:06:43.875Z,3.38
2022-09-28T18:09:14.928Z,2.10
2022-09-28T18:11:44.561Z,2.00
2022-09-28T18:14:13.876Z,1.67
2022-09-28T18:16:41.572Z,1.70
2022-09-28T18:19:09.252Z,1.05
2022-09-28T18:21:36.842Z,0.98
2022-09-28T18:24:04.619Z,0.90
2022-09-28T18:26:32.306Z,1.38
2022-09-28T18:29:00.080Z,1.88
2022-09-28T18:31:28.715Z,2.70
2022-09-28T18:34:02.977Z,2.55
2022-09-28T18:36:32.525Z,2.20
2022-09-28T18:39:01.548Z,2.78
2022-09-28T18:41:29.413Z,2.80
2022-09-28T18:44:00.929Z,2.78
2022-09-28T18:46:34.921Z,3.40
2022-09-28T18:49:04.319Z,5.15
2022-09-28T18:51:32.366Z,5.68
2022-09-28T18:54:02.204Z,4.57
2022-09-28T18:56:30.384Z,4.55
2022-09-28T18:59:00.197Z,3.30
2022-09-28T19:01:30.477Z,2.78
2022-09-28T19:04:00.759Z,2.17
2022-09-28T19:06:29.292Z,2.05
2022-09-28T19:08:57.651Z,2.75
2022-09-28T19:11:27.240Z,4.60
2022-09-28T19:13:55.775Z,3.97
2022-09-28T19:16:25.960Z,4.85
2022-09-28T19:18:53.823Z,4.85
2022-09-28T19:21:21.792Z,4.72
2022-09-28T19:23:50.159Z,3.67
2022-09-28T19:26:21.003Z,3.45
2022-09-28T19:28:49.526Z,3.78
2022-09-28T19:31:17.489Z,2.70
2022-09-28T19:33:46.634Z,2.78
2022-09-28T19:36:18.540Z,2.38
2022-09-28T19:38:46.441Z,2.10
2022-09-28T19:41:39.487Z,3.13
2022-09-28T19:44:26.306Z,3.72
2022-09-28T19:47:00.803Z,3.00
2022-09-28T19:49:30.001Z,4.05
2022-09-28T19:52:14.781Z,3.70
2022-09-28T19:54:58.338Z,4.85
2022-09-28T19:57:30.664Z,7.93
2022-09-28T20:00:02.431Z,41.15
2022-09-28T20:02:35.011Z,49.70
2022-09-28T20:05:03.546Z,33.47
2022-09-28T20:07:33.418Z,26.30
2022-09-28T20:10:00.988Z,18.33
2022-09-28T20:12:28.790Z,14.52
2022-09-28T20:14:56.515Z,10.60
2022-09-28T20:17:24.364Z,10.68
2022-09-28T20:19:52.432Z,9.38
2022-09-28T20:22:20.426Z,7.93
2022-09-28T20:24:48.171Z,7.03
2022-09-28T20:27:15.906Z,5.72
2022-09-28T20:29:43.901Z,5.00
2022-09-28T20:32:11.845Z,4.88
2022-09-28T20:34:39.643Z,4.00
2022-09-28T20:37:07.481Z,3.88
2022-09-28T20:39:35.068Z,2.70
2022-09-28T20:42:05.640Z,2.83
2022-09-28T20:44:33.390Z,2.10
2022-09-28T20:47:01.437Z,2.35
2022-09-28T20:49:29.175Z,4.70
2022-09-28T20:51:56.751Z,10.60
2022-09-28T20:54:24.729Z,12.02
2022-09-28T20:56:52.425Z,11.55
2022-09-28T20:59:22.914Z,8.77
2022-09-28T21:01:51.272Z,7.93
2022-09-28T21:04:19.740Z,6.20
2022-09-28T21:06:47.506Z,5.68
2022-09-28T21:09:15.143Z,6.53
2022-09-28T21:11:43.215Z,6.18
2022-09-28T21:14:10.927Z,5.00
2022-09-28T21:16:39.007Z,4.28
2022-09-28T21:19:06.793Z,3.78
2022-09-28T21:21:34.499Z,3.60
2022-09-28T21:24:02.468Z,3.67
2022-09-28T21:26:31.700Z,5.03
2022-09-28T21:29:12.989Z,6.30
2022-09-28T21:31:46.187Z,7.13
2022-09-28T21:34:19.468Z,8.85
2022-09-28T21:36:51.175Z,8.85
2022-09-28T21:39:20.312Z,11.55
2022-09-28T21:41:48.248Z,11.98
2022-09-28T21:44:15.962Z,9.27
2022-09-28T21:46:43.680Z,8.05
2022-09-28T21:49:12.743Z,6.78
2022-09-28T21:51:40.708Z,5.28
2022-09-28T21:54:08.788Z,5.40
2022-09-28T21:56:36.393Z,4.75
2022-09-28T21:59:04.226Z,3.50
2022-09-28T22:01:32.256Z,4.35
2022-09-28T22:04:00.073Z,5.00
2022-09-28T22:06:28.318Z,6.53
2022-09-28T22:08:57.008Z,7.22
2022-09-28T22:11:27.352Z,6.30
2022-09-28T22:13:59.430Z,5.80
2022-09-28T22:16:29.714Z,4.28
2022-09-28T22:18:58.112Z,3.53
2022-09-28T22:21:32.140Z,2.88
2022-09-28T22:24:04.512Z,3.20
2022-09-28T22:26:34.361Z,2.42
2022-09-28T22:29:05.910Z,1.90
2022-09-28T22:31:36.089Z,3.25
2022-09-28T22:34:04.743Z,3.25
2022-09-28T22:36:32.939Z,2.50
2022-09-28T22:39:00.662Z,2.30
2022-09-28T22:41:28.519Z,2.00
2022-09-28T22:43:56.339Z,1.83
2022-09-28T22:46:27.198Z,1.42
2022-09-28T22:48:56.935Z,1.70
2022-09-28T22:51:26.364Z,1.42
2022-09-28T22:53:54.444Z,1.23
2022-09-28T22:56:22.553Z,1.40
2022-09-28T22:58:50.192Z,1.65
2022-09-28T23:01:24.056Z,1.20
2022-09-28T23:03:52.889Z,1.30
2022-09-28T23:06:23.354Z,1.50
2022-09-28T23:08:51.882Z,1.27
2022-09-28T23:11:20.870Z,1.00
2022-09-28T23:13:52.900Z,0.98
2022-09-28T23:16:23.601Z,1.55
2022-09-28T23:18:52.433Z,1.08
2022-09-28T23:21:22.868Z,1.38
2022-09-28T23:23:59.018Z,1.00
2022-09-28T23:26:28.959Z,1.33
2022-09-28T23:28:57.648Z,1.20
2022-09-28T23:31:28.759Z,1.25
2022-09-28T23:34:04.309Z,1.38
2022-09-28T23:36:32.370Z,1.35
2022-09-28T23:39:00.416Z,1.27
2022-09-28T23:41:28.687Z,1.30
2022-09-28T23:43:56.427Z,1.00
2022-09-28T23:46:24.597Z,1.90
2022-09-28T23:48:52.675Z,1.55
2022-09-28T23:51:20.551Z,1.67
2022-09-28T23:53:48.318Z,1.60
2022-09-28T23:56:15.997Z,1.90
2022-09-28T23:58:43.718Z,1.70
